sensor_id;sensor_type;location;lat;lon;timestamp;pressure;altitude;pressure_sealevel;temperature;humidity
22283;BME280;11310;51.528;21.204;2023-03-05T00:01:46;99558.25;;;-3.01;100.00
22283;BME280;11310;51.528;21.204;2023-03-05T00:04:15;99561.69;;;-3.08;100.00
22283;BME280;11310;51.528;21.204;2023-03-05T00:06:44;99572.81;;;-3.12;100.00
22283;BME280;11310;51.528;21.204;2023-03-05T00:09:13;99570.22;;;-3.16;100.00
22283;BME280;11310;51.528;21.204;2023-03-05T00:11:43;99565.13;;;-3.18;100.00
22283;BME280;11310;51.528;21.204;2023-03-05T00:14:12;99564.22;;;-3.21;100.00
22283;BME280;11310;51.528;21.204;2023-03-05T00:16:40;99564.22;;;-3.21;100.00
22283;BME280;11310;51.528;21.204;2023-03-05T00:19:09;99563.38;;;-3.28;100.00
22283;BME280;11310;51.528;21.204;2023-03-05T00:21:39;99564.22;;;-3.29;100.00
22283;BME280;11310;51.528;21.204;2023-03-05T00:24:11;99558.25;;;-3.28;100.00
22283;BME280;11310;51.528;21.204;2023-03-05T00:26:41;99564.22;;;-3.27;100.00
22283;BME280;11310;51.528;21.204;2023-03-05T00:29:15;99557.41;;;-3.28;100.00
22283;BME280;11310;51.528;21.204;2023-03-05T00:31:45;99552.25;;;-3.34;100.00
22283;BME280;11310;51.528;21.204;2023-03-05T00:34:16;99555.66;;;-3.35;100.00
22283;BME280;11310;51.528;21.204;2023-03-05T00:36:47;99552.25;;;-3.37;100.00
22283;BME280;11310;51.528;21.204;2023-03-05T00:39:18;99553.94;;;-3.39;100.00
22283;BME280;11310;51.528;21.204;2023-03-05T00:41:48;99553.13;;;-3.40;100.00
22283;BME280;11310;51.528;21.204;2023-03-05T00:44:18;99545.44;;;-3.32;100.00
22283;BME280;11310;51.528;21.204;2023-03-05T00:46:47;99545.44;;;-3.32;100.00
22283;BME280;11310;51.528;21.204;2023-03-05T00:49:16;99546.28;;;-3.29;100.00
22283;BME280;11310;51.528;21.204;2023-03-05T00:51:44;99546.28;;;-3.27;100.00
22283;BME280;11310;51.528;21.204;2023-03-05T00:54:13;99531.75;;;-3.25;100.00
22283;BME280;11310;51.528;21.204;2023-03-05T00:56:41;99533.47;;;-3.24;100.00
22283;BME280;11310;51.528;21.204;2023-03-05T00:59:11;99531.75;;;-3.24;100.00
22283;BME280;11310;51.528;21.204;2023-03-05T01:01:40;99524.06;;;-3.24;100.00
22283;BME280;11310;51.528;21.204;2023-03-05T01:04:09;99530.91;;;-3.26;100.00
22283;BME280;11310;51.528;21.204;2023-03-05T01:06:39;99529.22;;;-3.27;100.00
22283;BME280;11310;51.528;21.204;2023-03-05T01:09:13;99521.50;;;-3.25;100.00
22283;BME280;11310;51.528;21.204;2023-03-05T01:11:41;99523.22;;;-3.24;100.00
22283;BME280;11310;51.528;21.204;2023-03-05T01:14:10;99524.06;;;-3.24;100.00
22283;BME280;11310;51.528;21.204;2023-03-05T01:16:41;99518.94;;;-3.24;100.00
22283;BME280;11310;51.528;21.204;2023-03-05T01:19:10;99521.50;;;-3.22;100.00
22283;BME280;11310;51.528;21.204;2023-03-05T01:21:38;99516.38;;;-3.19;100.00
22283;BME280;11310;51.528;21.204;2023-03-05T01:24:08;99521.50;;;-3.16;100.00
22283;BME280;11310;51.528;21.204;2023-03-05T01:26:37;99512.97;;;-3.15;100.00
22283;BME280;11310;51.528;21.204;2023-03-05T01:29:06;99521.50;;;-3.15;100.00
22283;BME280;11310;51.528;21.204;2023-03-05T01:31:34;99509.53;;;-3.16;100.00
22283;BME280;11310;51.528;21.204;2023-03-05T01:34:06;99511.22;;;-3.16;100.00
22283;BME280;11310;51.528;21.204;2023-03-05T01:36:35;99511.25;;;-3.15;100.00
22283;BME280;11310;51.528;21.204;2023-03-05T01:39:03;99505.25;;;-3.14;100.00
22283;BME280;11310;51.528;21.204;2023-03-05T01:41:32;99502.72;;;-3.15;100.00
22283;BME280;11310;51.528;21.204;2023-03-05T01:44:01;99503.56;;;-3.19;100.00
22283;BME280;11310;51.528;21.204;2023-03-05T01:46:32;99500.97;;;-3.25;100.00
22283;BME280;11310;51.528;21.204;2023-03-05T01:49:10;99497.56;;;-3.30;100.00
22283;BME280;11310;51.528;21.204;2023-03-05T01:51:46;99494.16;;;-3.32;100.00
22283;BME280;11310;51.528;21.204;2023-03-05T01:54:20;99486.47;;;-3.40;100.00
22283;BME280;11310;51.528;21.204;2023-03-05T01:56:50;99492.44;;;-3.38;100.00
22283;BME280;11310;51.528;21.204;2023-03-05T01:59:22;99488.16;;;-3.39;100.00
22283;BME280;11310;51.528;21.204;2023-03-05T02:01:53;99486.47;;;-3.40;100.00
22283;BME280;11310;51.528;21.204;2023-03-05T02:04:30;99487.31;;;-3.38;100.00
22283;BME280;11310;51.528;21.204;2023-03-05T02:07:00;99483.88;;;-3.37;100.00
22283;BME280;11310;51.528;21.204;2023-03-05T02:09:28;99481.31;;;-3.35;100.00
22283;BME280;11310;51.528;21.204;2023-03-05T02:11:57;99485.59;;;-3.33;100.00
22283;BME280;11310;51.528;21.204;2023-03-05T02:14:26;99484.72;;;-3.32;100.00
22283;BME280;11310;51.528;21.204;2023-03-05T02:16:55;99484.75;;;-3.29;100.00
22283;BME280;11310;51.528;21.204;2023-03-05T02:19:25;99476.22;;;-3.31;100.00
22283;BME280;11310;51.528;21.204;2023-03-05T02:21:55;99483.03;;;-3.33;100.00
22283;BME280;11310;51.528;21.204;2023-03-05T02:24:35;99476.19;;;-3.34;100.00
22283;BME280;11310;51.528;21.204;2023-03-05T02:27:05;99475.38;;;-3.36;100.00
22283;BME280;11310;51.528;21.204;2023-03-05T02:29:34;99467.66;;;-3.39;100.00
22283;BME280;11310;51.528;21.204;2023-03-05T02:32:06;99468.53;;;-3.41;100.00
22283;BME280;11310;51.528;21.204;2023-03-05T02:34:36;99461.66;;;-3.47;100.00
22283;BME280;11310;51.528;21.204;2023-03-05T02:37:06;99466.78;;;-3.48;100.00
22283;BME280;11310;51.528;21.204;2023-03-05T02:39:37;99464.25;;;-3.53;100.00
22283;BME280;11310;51.528;21.204;2023-03-05T02:42:07;99460.81;;;-3.56;100.00
22283;BME280;11310;51.528;21.204;2023-03-05T02:44:36;99467.63;;;-3.60;100.00
22283;BME280;11310;51.528;21.204;2023-03-05T02:47:06;99465.06;;;-3.66;100.00
22283;BME280;11310;51.528;21.204;2023-03-05T02:49:34;99469.34;;;-3.71;100.00
22283;BME280;11310;51.528;21.204;2023-03-05T02:52:03;99458.25;;;-3.73;100.00
22283;BME280;11310;51.528;21.204;2023-03-05T02:54:33;99464.19;;;-3.74;100.00
22283;BME280;11310;51.528;21.204;2023-03-05T02:57:03;99459.09;;;-3.74;100.00
22283;BME280;11310;51.528;21.204;2023-03-05T02:59:31;99459.09;;;-3.77;100.00
22283;BME280;11310;51.528;21.204;2023-03-05T03:02:01;99452.25;;;-3.78;100.00
22283;BME280;11310;51.528;21.204;2023-03-05T03:04:30;99447.97;;;-3.77;100.00
22283;BME280;11310;51.528;21.204;2023-03-05T03:06:58;99442.84;;;-3.77;100.00
22283;BME280;11310;51.528;21.204;2023-03-05T03:09:27;99444.56;;;-3.73;100.00
22283;BME280;11310;51.528;21.204;2023-03-05T03:11:57;99442.84;;;-3.71;100.00
22283;BME280;11310;51.528;21.204;2023-03-05T03:14:25;99445.44;;;-3.68;100.00
22283;BME280;11310;51.528;21.204;2023-03-05T03:16:54;99448.00;;;-3.65;100.00
22283;BME280;11310;51.528;21.204;2023-03-05T03:19:22;99440.31;;;-3.68;100.00
22283;BME280;11310;51.528;21.204;2023-03-05T03:21:51;99435.19;;;-3.70;100.00
22283;BME280;11310;51.528;21.204;2023-03-05T03:24:21;99438.63;;;-3.68;100.00
22283;BME280;11310;51.528;21.204;2023-03-05T03:26:50;99440.31;;;-3.68;100.00
22283;BME280;11310;51.528;21.204;2023-03-05T03:29:20;99430.06;;;-3.70;100.00
22283;BME280;11310;51.528;21.204;2023-03-05T03:31:48;99430.91;;;-3.69;100.00
22283;BME280;11310;51.528;21.204;2023-03-05T03:34:17;99430.06;;;-3.67;100.00
22283;BME280;11310;51.528;21.204;2023-03-05T03:36:48;99434.34;;;-3.70;100.00
22283;BME280;11310;51.528;21.204;2023-03-05T03:39:18;99432.63;;;-3.73;100.00
22283;BME280;11310;51.528;21.204;2023-03-05T03:41:49;99430.06;;;-3.74;100.00
22283;BME280;11310;51.528;21.204;2023-03-05T03:44:20;99436.88;;;-3.75;100.00
22283;BME280;11310;51.528;21.204;2023-03-05T03:46:51;99426.63;;;-3.76;100.00
22283;BME280;11310;51.528;21.204;2023-03-05T03:49:21;99425.78;;;-3.78;100.00
22283;BME280;11310;51.528;21.204;2023-03-05T03:51:51;99421.50;;;-3.81;100.00
22283;BME280;11310;51.528;21.204;2023-03-05T03:54:21;99423.19;;;-3.83;100.00
22283;BME280;11310;51.528;21.204;2023-03-05T03:56:50;99420.63;;;-3.83;100.00
22283;BME280;11310;51.528;21.204;2023-03-05T03:59:20;99418.94;;;-3.84;100.00
22283;BME280;11310;51.528;21.204;2023-03-05T04:01:49;99410.41;;;-3.84;100.00
22283;BME280;11310;51.528;21.204;2023-03-05T04:04:18;99411.25;;;-3.84;100.00
22283;BME280;11310;51.528;21.204;2023-03-05T04:06:46;99411.25;;;-3.87;100.00
22283;BME280;11310;51.528;21.204;2023-03-05T04:09:15;99409.53;;;-3.88;100.00
22283;BME280;11310;51.528;21.204;2023-03-05T04:11:45;99414.69;;;-3.91;100.00
22283;BME280;11310;51.528;21.204;2023-03-05T04:14:13;99409.53;;;-3.94;100.00
22283;BME280;11310;51.528;21.204;2023-03-05T04:16:44;99408.69;;;-3.94;100.00
22283;BME280;11310;51.528;21.204;2023-03-05T04:19:12;99402.69;;;-3.98;100.00
22283;BME280;11310;51.528;21.204;2023-03-05T04:21:41;99404.41;;;-4.00;100.00
22283;BME280;11310;51.528;21.204;2023-03-05T04:24:10;99398.44;;;-4.00;100.00
22283;BME280;11310;51.528;21.204;2023-03-05T04:26:39;99397.56;;;-4.01;100.00
22283;BME280;11310;51.528;21.204;2023-03-05T04:29:07;99405.25;;;-4.04;100.00
22283;BME280;11310;51.528;21.204;2023-03-05T04:31:36;99397.56;;;-4.07;100.00
22283;BME280;11310;51.528;21.204;2023-03-05T04:34:06;99393.31;;;-4.06;100.00
22283;BME280;11310;51.528;21.204;2023-03-05T04:36:34;99392.44;;;-4.10;100.00
22283;BME280;11310;51.528;21.204;2023-03-05T04:39:03;99391.59;;;-4.10;100.00
22283;BME280;11310;51.528;21.204;2023-03-05T04:41:32;99389.03;;;-4.09;100.00
22283;BME280;11310;51.528;21.204;2023-03-05T04:44:01;99388.19;;;-4.09;100.00
22283;BME280;11310;51.528;21.204;2023-03-05T04:46:30;99393.31;;;-4.08;100.00
22283;BME280;11310;51.528;21.204;2023-03-05T04:48:59;99388.19;;;-4.05;100.00
22283;BME280;11310;51.528;21.204;2023-03-05T04:51:29;99389.03;;;-4.03;100.00
22283;BME280;11310;51.528;21.204;2023-03-05T04:53:57;99387.31;;;-4.01;100.00
22283;BME280;11310;51.528;21.204;2023-03-05T04:56:26;99389.06;;;-4.00;100.00
22283;BME280;11310;51.528;21.204;2023-03-05T04:58:55;99386.50;;;-4.00;100.00
22283;BME280;11310;51.528;21.204;2023-03-05T05:01:24;99380.50;;;-3.96;100.00
22283;BME280;11310;51.528;21.204;2023-03-05T05:03:53;99388.19;;;-3.87;100.00
22283;BME280;11310;51.528;21.204;2023-03-05T05:06:22;99388.22;;;-3.82;100.00
22283;BME280;11310;51.528;21.204;2023-03-05T05:08:51;99387.34;;;-3.83;100.00
22283;BME280;11310;51.528;21.204;2023-03-05T05:11:20;99390.78;;;-3.81;100.00
22283;BME280;11310;51.528;21.204;2023-03-05T05:13:49;99387.38;;;-3.77;100.00
22283;BME280;11310;51.528;21.204;2023-03-05T05:16:17;99381.38;;;-3.74;100.00
22283;BME280;11310;51.528;21.204;2023-03-05T05:18:46;99376.25;;;-3.74;100.00
22283;BME280;11310;51.528;21.204;2023-03-05T05:21:15;99382.22;;;-3.74;100.00
22283;BME280;11310;51.528;21.204;2023-03-05T05:23:44;99375.41;;;-3.75;100.00
22283;BME280;11310;51.528;21.204;2023-03-05T05:26:15;99380.53;;;-3.73;100.00
22283;BME280;11310;51.528;21.204;2023-03-05T05:28:43;99377.97;;;-3.72;100.00
22283;BME280;11310;51.528;21.204;2023-03-05T05:31:14;99378.81;;;-3.70;100.00
22283;BME280;11310;51.528;21.204;2023-03-05T05:33:44;99380.53;;;-3.67;100.00
22283;BME280;11310;51.528;21.204;2023-03-05T05:36:16;99384.78;;;-3.65;100.00
22283;BME280;11310;51.528;21.204;2023-03-05T05:38:46;99379.66;;;-3.63;100.00
22283;BME280;11310;51.528;21.204;2023-03-05T05:41:18;99383.09;;;-3.61;100.00
22283;BME280;11310;51.528;21.204;2023-03-05T05:43:47;99381.38;;;-3.56;100.00
22283;BME280;11310;51.528;21.204;2023-03-05T05:46:18;99377.97;;;-3.52;100.00
22283;BME280;11310;51.528;21.204;2023-03-05T05:48:47;99378.78;;;-3.46;100.00
22283;BME280;11310;51.528;21.204;2023-03-05T05:51:20;99376.25;;;-3.38;100.00
22283;BME280;11310;51.528;21.204;2023-03-05T05:53:50;99370.25;;;-3.31;100.00
22283;BME280;11310;51.528;21.204;2023-03-05T05:56:20;99372.78;;;-3.25;100.00
22283;BME280;11310;51.528;21.204;2023-03-05T05:58:49;99376.19;;;-3.19;100.00
22283;BME280;11310;51.528;21.204;2023-03-05T06:01:23;99371.06;;;-3.16;100.00
22283;BME280;11310;51.528;21.204;2023-03-05T06:03:54;99376.19;;;-3.14;100.00
22283;BME280;11310;51.528;21.204;2023-03-05T06:06:25;99370.22;;;-3.12;100.00
22283;BME280;11310;51.528;21.204;2023-03-05T06:08:54;99373.63;;;-3.13;100.00
22283;BME280;11310;51.528;21.204;2023-03-05T06:11:25;99371.06;;;-3.13;100.00
22283;BME280;11310;51.528;21.204;2023-03-05T06:13:54;99365.94;;;-3.14;100.00
22283;BME280;11310;51.528;21.204;2023-03-05T06:16:23;99366.81;;;-3.17;100.00
22283;BME280;11310;51.528;21.204;2023-03-05T06:18:52;99371.94;;;-3.15;100.00
22283;BME280;11310;51.528;21.204;2023-03-05T06:21:21;99367.63;;;-3.04;100.00
22283;BME280;11310;51.528;21.204;2023-03-05T06:23:50;99364.13;;;-2.85;98.92
22283;BME280;11310;51.528;21.204;2023-03-05T06:26:20;99357.22;;;-2.67;97.49
22283;BME280;11310;51.528;21.204;2023-03-05T06:28:51;99357.22;;;-2.71;97.81
22283;BME280;11310;51.528;21.204;2023-03-05T06:31:21;99356.41;;;-2.75;98.54
22283;BME280;11310;51.528;21.204;2023-03-05T06:33:54;99349.53;;;-2.73;97.87
22283;BME280;11310;51.528;21.204;2023-03-05T06:36:23;99346.97;;;-2.67;97.83
22283;BME280;11310;51.528;21.204;2023-03-05T06:38:53;99345.22;;;-2.62;97.58
22283;BME280;11310;51.528;21.204;2023-03-05T06:41:24;99346.88;;;-2.55;97.45
22283;BME280;11310;51.528;21.204;2023-03-05T06:43:55;99348.56;;;-2.46;97.19
22283;BME280;11310;51.528;21.204;2023-03-05T06:46:25;99346.78;;;-2.38;95.98
22283;BME280;11310;51.528;21.204;2023-03-05T06:48:55;99344.22;;;-2.31;96.35
22283;BME280;11310;51.528;21.204;2023-03-05T06:51:26;99341.59;;;-2.22;95.82
22283;BME280;11310;51.528;21.204;2023-03-05T06:53:57;99343.22;;;-2.15;95.88
22283;BME280;11310;51.528;21.204;2023-03-05T06:56:26;99334.59;;;-2.06;94.60
22283;BME280;11310;51.528;21.204;2023-03-05T06:58:56;99334.53;;;-1.97;95.21
22283;BME280;11310;51.528;21.204;2023-03-05T07:01:25;99335.31;;;-1.88;94.75
22283;BME280;11310;51.528;21.204;2023-03-05T07:03:54;99325.84;;;-1.81;94.14
22283;BME280;11310;51.528;21.204;2023-03-05T07:06:25;99327.47;;;-1.71;93.55
22283;BME280;11310;51.528;21.204;2023-03-05T07:08:55;99324.88;;;-1.67;93.16
22283;BME280;11310;51.528;21.204;2023-03-05T07:11:24;99321.38;;;-1.60;92.04
22283;BME280;11310;51.528;21.204;2023-03-05T07:13:53;99323.00;;;-1.50;92.06
22283;BME280;11310;51.528;21.204;2023-03-05T07:16:24;99315.19;;;-1.39;91.39
22283;BME280;11310;51.528;21.204;2023-03-05T07:18:53;99322.81;;;-1.32;92.02
22283;BME280;11310;51.528;21.204;2023-03-05T07:21:24;99321.91;;;-1.26;91.94
22283;BME280;11310;51.528;21.204;2023-03-05T07:23:54;99316.69;;;-1.19;91.21
22283;BME280;11310;51.528;21.204;2023-03-05T07:26:23;99324.31;;;-1.13;91.58
22283;BME280;11310;51.528;21.204;2023-03-05T07:28:53;99322.50;;;-1.02;92.02
22283;BME280;11310;51.528;21.204;2023-03-05T07:31:24;99316.38;;;-0.93;91.26
22283;BME280;11310;51.528;21.204;2023-03-05T07:33:58;99314.53;;;-0.82;91.15
22283;BME280;11310;51.528;21.204;2023-03-05T07:36:28;99299.00;;;-0.75;91.15
22283;BME280;11310;51.528;21.204;2023-03-05T07:38:57;99304.94;;;-0.68;91.03
22283;BME280;11310;51.528;21.204;2023-03-05T07:41:26;99303.94;;;-0.58;91.00
22283;BME280;11310;51.528;21.204;2023-03-05T07:43:55;99304.50;;;-0.40;90.28
22283;BME280;11310;51.528;21.204;2023-03-05T07:46:27;99303.47;;;-0.28;89.72
22283;BME280;11310;51.528;21.204;2023-03-05T07:48:56;99291.38;;;-0.22;88.92
22283;BME280;11310;51.528;21.204;2023-03-05T07:51:26;99282.66;;;-0.13;87.86
22283;BME280;11310;51.528;21.204;2023-03-05T07:53:56;99277.41;;;-0.07;88.10
22283;BME280;11310;51.528;21.204;2023-03-05T07:56:27;99272.97;;;0.03;88.27
22283;BME280;11310;51.528;21.204;2023-03-05T07:58:58;99273.53;;;0.19;87.36
22283;BME280;11310;51.528;21.204;2023-03-05T08:01:29;99273.81;;;0.52;86.37
22283;BME280;11310;51.528;21.204;2023-03-05T08:03:58;99262.63;;;0.95;84.55
22283;BME280;11310;51.528;21.204;2023-03-05T08:06:27;99267.22;;;1.24;83.94
22283;BME280;11310;51.528;21.204;2023-03-05T08:08:57;99266.34;;;1.25;81.91
22283;BME280;11310;51.528;21.204;2023-03-05T08:11:26;99262.22;;;1.16;81.97
22283;BME280;11310;51.528;21.204;2023-03-05T08:13:56;99257.13;;;1.12;83.59
22283;BME280;11310;51.528;21.204;2023-03-05T08:16:25;99251.13;;;1.11;84.16
22283;BME280;11310;51.528;21.204;2023-03-05T08:18:57;99245.88;;;1.16;84.08
22283;BME280;11310;51.528;21.204;2023-03-05T08:21:28;99253.50;;;1.22;83.24
22283;BME280;11310;51.528;21.204;2023-03-05T08:24:03;99256.88;;;1.24;82.67
22283;BME280;11310;51.528;21.204;2023-03-05T08:26:40;99268.91;;;1.25;82.56
22283;BME280;11310;51.528;21.204;2023-03-05T08:29:16;99256.84;;;1.27;83.04
22283;BME280;11310;51.528;21.204;2023-03-05T08:31:46;99256.84;;;1.27;83.24
22283;BME280;11310;51.528;21.204;2023-03-05T08:34:17;99258.47;;;1.31;82.60
22283;BME280;11310;51.528;21.204;2023-03-05T08:36:46;99260.16;;;1.32;82.73
22283;BME280;11310;51.528;21.204;2023-03-05T08:39:15;99257.50;;;1.35;83.13
22283;BME280;11310;51.528;21.204;2023-03-05T08:41:44;99247.09;;;1.38;82.87
22283;BME280;11310;51.528;21.204;2023-03-05T08:44:12;99250.44;;;1.43;84.50
22283;BME280;11310;51.528;21.204;2023-03-05T08:46:41;99244.19;;;1.53;84.08
22283;BME280;11310;51.528;21.204;2023-03-05T08:49:10;99243.34;;;1.52;84.45
22283;BME280;11310;51.528;21.204;2023-03-05T08:51:40;99247.59;;;1.55;84.60
22283;BME280;11310;51.528;21.204;2023-03-05T08:54:08;99241.50;;;1.57;84.68
22283;BME280;11310;51.528;21.204;2023-03-05T08:56:38;99245.81;;;1.57;84.94
22283;BME280;11310;51.528;21.204;2023-03-05T08:59:08;99239.81;;;1.56;85.89
22283;BME280;11310;51.528;21.204;2023-03-05T09:01:39;99241.50;;;1.57;85.23
22283;BME280;11310;51.528;21.204;2023-03-05T09:04:08;99238.03;;;1.58;86.77
22283;BME280;11310;51.528;21.204;2023-03-05T09:06:37;99243.25;;;1.55;85.84
22283;BME280;11310;51.528;21.204;2023-03-05T09:09:08;99237.31;;;1.52;87.11
22283;BME280;11310;51.528;21.204;2023-03-05T09:11:37;99237.31;;;1.52;86.73
22283;BME280;11310;51.528;21.204;2023-03-05T09:14:06;99232.34;;;1.43;85.49
22283;BME280;11310;51.528;21.204;2023-03-05T09:16:34;99234.19;;;1.38;86.36
22283;BME280;11310;51.528;21.204;2023-03-05T09:19:04;99230.84;;;1.34;86.99
22283;BME280;11310;51.528;21.204;2023-03-05T09:21:35;99230.91;;;1.30;87.41
22283;BME280;11310;51.528;21.204;2023-03-05T09:24:04;99227.59;;;1.25;87.24
22283;BME280;11310;51.528;21.204;2023-03-05T09:26:34;99227.56;;;1.26;88.76
22283;BME280;11310;51.528;21.204;2023-03-05T09:29:02;99232.69;;;1.28;88.64
22283;BME280;11310;51.528;21.204;2023-03-05T09:31:33;99231.78;;;1.30;88.29
22283;BME280;11310;51.528;21.204;2023-03-05T09:34:03;99232.66;;;1.31;88.25
22283;BME280;11310;51.528;21.204;2023-03-05T09:36:32;99236.06;;;1.31;88.84
22283;BME280;11310;51.528;21.204;2023-03-05T09:39:02;99236.91;;;1.32;88.94
22283;BME280;11310;51.528;21.204;2023-03-05T09:41:56;99239.47;;;1.33;88.19
22283;BME280;11310;51.528;21.204;2023-03-05T09:44:36;99231.75;;;1.32;89.19
22283;BME280;11310;51.528;21.204;2023-03-05T09:47:22;99236.03;;;1.33;89.37
22283;BME280;11310;51.528;21.204;2023-03-05T09:49:57;99226.47;;;1.36;89.45
22283;BME280;11310;51.528;21.204;2023-03-05T09:52:35;99218.69;;;1.38;89.28
22283;BME280;11310;51.528;21.204;2023-03-05T09:55:11;99220.47;;;1.36;89.71
22283;BME280;11310;51.528;21.204;2023-03-05T09:57:45;99218.75;;;1.35;89.63
22283;BME280;11310;51.528;21.204;2023-03-05T10:00:28;99214.44;;;1.35;90.02
22283;BME280;11310;51.528;21.204;2023-03-05T10:03:04;99210.94;;;1.38;90.00
22283;BME280;11310;51.528;21.204;2023-03-05T10:05:48;99216.94;;;1.40;89.63
22283;BME280;11310;51.528;21.204;2023-03-05T10:08:23;99212.53;;;1.45;89.33
22283;BME280;11310;51.528;21.204;2023-03-05T10:10:58;99209.09;;;1.43;89.17
22283;BME280;11310;51.528;21.204;2023-03-05T10:13:36;99206.59;;;1.40;88.98
22283;BME280;11310;51.528;21.204;2023-03-05T10:16:26;99208.34;;;1.38;89.40
22283;BME280;11310;51.528;21.204;2023-03-05T10:19:03;99205.81;;;1.36;90.01
22283;BME280;11310;51.528;21.204;2023-03-05T10:21:38;99198.91;;;1.37;90.49
22283;BME280;11310;51.528;21.204;2023-03-05T10:24:11;99191.97;;;1.39;90.32
22283;BME280;11310;51.528;21.204;2023-03-05T10:26:51;99191.13;;;1.38;89.91
22283;BME280;11310;51.528;21.204;2023-03-05T10:29:46;99192.81;;;1.41;89.66
22283;BME280;11310;51.528;21.204;2023-03-05T10:32:32;99183.28;;;1.41;89.99
22283;BME280;11310;51.528;21.204;2023-03-05T10:35:32;99183.94;;;1.51;90.68
22283;BME280;11310;51.528;21.204;2023-03-05T10:38:30;99178.56;;;1.60;90.09
22283;BME280;11310;51.528;21.204;2023-03-05T10:41:06;99180.09;;;1.67;90.51
22283;BME280;11310;51.528;21.204;2023-03-05T10:43:45;99178.22;;;1.73;90.76
22283;BME280;11310;51.528;21.204;2023-03-05T10:46:20;99181.66;;;1.74;90.10
22283;BME280;11310;51.528;21.204;2023-03-05T10:48:54;99168.00;;;1.69;90.27
22283;BME280;11310;51.528;21.204;2023-03-05T10:51:32;99174.81;;;1.73;90.40
22283;BME280;11310;51.528;21.204;2023-03-05T10:54:08;99168.78;;;1.72;90.71
22283;BME280;11310;51.528;21.204;2023-03-05T10:56:39;99171.38;;;1.71;90.32
22283;BME280;11310;51.528;21.204;2023-03-05T10:59:08;99167.25;;;1.65;90.47
22283;BME280;11310;51.528;21.204;2023-03-05T11:01:38;99163.06;;;1.60;91.04
22283;BME280;11310;51.528;21.204;2023-03-05T11:04:08;99163.75;;;1.66;91.35
22283;BME280;11310;51.528;21.204;2023-03-05T11:06:52;99161.03;;;1.71;91.61
22283;BME280;11310;51.528;21.204;2023-03-05T11:09:22;99154.19;;;1.70;91.44
22283;BME280;11310;51.528;21.204;2023-03-05T11:12:10;99154.16;;;1.71;91.41
22283;BME280;11310;51.528;21.204;2023-03-05T11:14:40;99152.50;;;1.69;91.46
22283;BME280;11310;51.528;21.204;2023-03-05T11:17:29;99152.66;;;1.63;92.68
22283;BME280;11310;51.528;21.204;2023-03-05T11:23:04;99137.38;;;1.54;93.95
22283;BME280;11310;51.528;21.204;2023-03-05T11:25:34;99134.78;;;1.54;94.55
22283;BME280;11310;51.528;21.204;2023-03-05T11:28:03;99130.56;;;1.50;95.08
22283;BME280;11310;51.528;21.204;2023-03-05T11:30:34;99125.53;;;1.44;95.73
22283;BME280;11310;51.528;21.204;2023-03-05T11:33:09;99123.13;;;1.36;96.18
22283;BME280;11310;51.528;21.204;2023-03-05T11:35:40;99117.34;;;1.27;96.60
22283;BME280;11310;51.528;21.204;2023-03-05T11:38:16;99119.94;;;1.27;97.50
22283;BME280;11310;51.528;21.204;2023-03-05T11:40:46;99116.56;;;1.23;98.07
22283;BME280;11310;51.528;21.204;2023-03-05T11:43:17;99121.84;;;1.19;99.41
22283;BME280;11310;51.528;21.204;2023-03-05T11:45:48;99112.69;;;1.06;100.00
22283;BME280;11310;51.528;21.204;2023-03-05T11:48:24;99113.75;;;0.97;100.00
22283;BME280;11310;51.528;21.204;2023-03-05T11:50:55;99111.25;;;0.93;100.00
22283;BME280;11310;51.528;21.204;2023-03-05T11:53:26;99107.94;;;0.86;100.00
22283;BME280;11310;51.528;21.204;2023-03-05T11:55:58;99108.22;;;0.76;100.00
22283;BME280;11310;51.528;21.204;2023-03-05T11:58:31;99097.94;;;0.73;100.00
22283;BME280;11310;51.528;21.204;2023-03-05T12:01:06;99093.56;;;0.76;100.00
22283;BME280;11310;51.528;21.204;2023-03-05T12:03:42;99086.56;;;0.81;100.00
22283;BME280;11310;51.528;21.204;2023-03-05T12:06:15;99083.91;;;0.86;100.00
22283;BME280;11310;51.528;21.204;2023-03-05T12:08:48;99084.69;;;0.88;100.00
22283;BME280;11310;51.528;21.204;2023-03-05T12:11:19;99080.38;;;0.90;100.00
22283;BME280;11310;51.528;21.204;2023-03-05T12:13:51;99076.91;;;0.91;100.00
22283;BME280;11310;51.528;21.204;2023-03-05T12:16:27;99069.16;;;0.91;100.00
22283;BME280;11310;51.528;21.204;2023-03-05T12:21:58;99065.72;;;0.90;100.00
22283;BME280;11310;51.528;21.204;2023-03-05T12:24:35;99059.72;;;0.90;100.00
22283;BME280;11310;51.528;21.204;2023-03-05T12:27:13;99063.22;;;0.87;100.00
22283;BME280;11310;51.528;21.204;2023-03-05T12:29:49;99058.16;;;0.83;100.00
22283;BME280;11310;51.528;21.204;2023-03-05T12:35:33;99054.84;;;0.76;100.00
22283;BME280;11310;51.528;21.204;2023-03-05T12:38:17;99043.78;;;0.71;100.00
22283;BME280;11310;51.528;21.204;2023-03-05T12:44:21;99036.03;;;0.71;100.00
22283;BME280;11310;51.528;21.204;2023-03-05T12:47:17;99030.81;;;0.74;100.00
22283;BME280;11310;51.528;21.204;2023-03-05T12:49:51;99027.31;;;0.77;100.00
22283;BME280;11310;51.528;21.204;2023-03-05T12:52:26;99021.34;;;0.75;100.00
22283;BME280;11310;51.528;21.204;2023-03-05T12:55:14;99018.69;;;0.78;100.00
22283;BME280;11310;51.528;21.204;2023-03-05T12:57:44;99019.50;;;0.80;100.00
22283;BME280;11310;51.528;21.204;2023-03-05T13:00:16;99007.44;;;0.80;100.00
22283;BME280;11310;51.528;21.204;2023-03-05T13:02:51;99010.75;;;0.85;100.00
22283;BME280;11310;51.528;21.204;2023-03-05T13:05:26;99007.28;;;0.86;100.00
22283;BME280;11310;51.528;21.204;2023-03-05T13:08:11;98998.03;;;0.79;100.00
22283;BME280;11310;51.528;21.204;2023-03-05T13:10:48;98995.44;;;0.79;100.00
22283;BME280;11310;51.528;21.204;2023-03-05T13:13:17;98995.44;;;0.79;100.00
22283;BME280;11310;51.528;21.204;2023-03-05T13:15:48;98994.41;;;0.85;100.00
22283;BME280;11310;51.528;21.204;2023-03-05T13:18:19;98995.34;;;0.82;100.00
22283;BME280;11310;51.528;21.204;2023-03-05T13:20:59;98989.44;;;0.77;100.00
22283;BME280;11310;51.528;21.204;2023-03-05T13:23:30;98980.78;;;0.80;100.00